Weather observations for the past three days for
Gatesville, City-County Airport
Metric (Imperial)
Date Time (cdt) Wind (kph) Vis. (km) Weather Sky Cond. Temperature (ºC) Relative Humidity Wind Chill (°C) Heat Index (°C) Pressure Precipitation (cm)
Air Dwpt 6 hour altimeter (cm) sea level (mb) 1 hr 3 hr 6 hr
Max. Min.
10 11:55 Vrbl 11 G 22 16.09 Fair CLR 28 23 74% 31 76.07 0.0
10 11:35 Vrbl 9 G 26 16.09 A Few Clouds FEW022 27 23 79% 30 76.07 0.0
10 11:15 Vrbl 11 G 22 16.09 A Few Clouds FEW019 27 23 79% 30 76.07 0.0
10 10:55 Vrbl 11 G 24 16.09 A Few Clouds FEW019 27 23 79% 30 76.1 0.0
10 10:35 Vrbl 7 G 19 16.09 A Few Clouds FEW016 26 23 84% 28 76.1 0.0
10 10:15 Vrbl 9 G 19 16.09 Partly Cloudy SCT015 25 22 83% 26 76.1 0.0
10 09:55 E 13 16.09 A Few Clouds FEW013 24 22 89% 24 76.1 0.0
10 09:35 Vrbl 11 16.09 A Few Clouds FEW013 24 22 89% 24 76.1 0.0
10 09:15 Vrbl 11 G 20 16.09 A Few Clouds FEW012 24 22 89% 24 76.1 0.0
10 08:55 Vrbl 11 G 20 16.09 A Few Clouds FEW012 23 22 94% 76.1 0.0
10 08:35 E 9 16.09 Fair CLR 22 21 94% 76.07 0.0
10 08:15 E 7 16.09 Fair CLR 22 21 94% 76.07 0.0
10 07:55 NE 7 16.09 Fair CLR 21 21 100% 76.05 0.0
10 07:35 Vrbl 7 16.09 Fair CLR 21 21 100% 76.02 0.0
10 07:15 Calm 16.09 Fair CLR 20 20 100% 75.97 0.0
10 06:55 Calm 16.09 Fair CLR 20 20 100% 75.92 0.0
10 06:35 E 7 16.09 Fair CLR 20 20 100% 75.9 0.0
10 06:15 Calm 16.09 Fair CLR 21 21 100% 75.87 0.0
10 05:55 Vrbl 7 16.09 Fair CLR 21 21 100% 75.84 0.0
10 05:35 SE 9 16.09 Fair CLR 22 21 94% 75.79 0.0
10 05:15 S 11 16.09 Fair CLR 22 21 94% 75.79 0.0
10 04:55 SE 9 16.09 Fair CLR 22 21 94% 75.79 0.0
10 04:35 Vrbl 7 16.09 Fair CLR 22 21 94% 75.79 0.0
10 04:15 SE 6 16.09 Fair CLR 22 21 94% 75.79 0.0
10 03:55 S 11 16.09 Fair CLR 23 21 89% 75.77 0.0
10 03:35 S 13 16.09 Fair CLR 23 21 89% 75.77 0.0
10 03:15 S 9 G 20 16.09 Fair CLR 23 21 89% 75.77 0.0
10 02:55 S 13 16.09 Fair CLR 23 21 89% 75.77 0.0
10 02:35 S 15 16.09 Fair CLR 23 21 89% 75.77 0.0
10 02:15 S 13 G 24 16.09 Fair CLR 23 22 94% 75.77 0.0
10 01:55 S 13 G 26 16.09 Fair CLR 23 22 94% 75.77 0.0
10 01:35 S 9 16.09 Fair CLR 23 22 94% 75.79 0.0
10 01:15 S 11 16.09 Fair CLR 23 22 94% 75.77 0.0
10 00:55 S 9 16.09 Fair CLR 23 22 94% 75.79 0.0
10 00:35 S 9 16.09 Fair CLR 23 22 94% 75.79 0.0
10 00:15 S 11 16.09 Fair CLR 24 23 94% 23 75.79 0.0
09 23:55 Vrbl 9 16.09 Fair CLR 24 23 94% 23 75.79 0.0
09 23:35 S 11 16.09 Fair CLR 24 22 89% 24 75.79 0.0
09 23:15 SE 9 16.09 Fair CLR 24 22 89% 24 75.79 0.0
09 22:55 S 9 16.09 Fair CLR 25 22 83% 26 75.79 0.0
09 22:35 S 9 16.09 Fair CLR 25 22 83% 26 75.77 0.0
09 22:15 SE 7 16.09 Fair CLR 25 22 83% 26 75.77 0.0
09 21:55 S 9 16.09 Fair CLR 25 21 79% 26 75.74 0.0
09 21:35 SE 7 16.09 Fair CLR 25 21 79% 26 75.72 0.0
09 21:15 SE 6 16.09 Fair CLR 26 20 70% 27 75.72 0.0
09 20:55 SE 7 16.09 Fair CLR 27 20 66% 29 75.69 0.0
09 20:35 Calm 16.09 Fair CLR 28 19 58% 29 75.67 0.0
09 20:15 Calm 16.09 Fair CLR 28 19 58% 29 75.64 0.0
09 19:55 Calm 16.09 Fair CLR 29 19 55% 30 75.64 0.0
09 19:35 Calm 16.09 Fair CLR 30 19 52% 31 75.64 0.0
09 19:15 Calm 16.09 Fair CLR 31 18 46% 32 75.62 0.0
09 18:55 Calm 16.09 Fair CLR 32 17 41% 32 75.62 0.0
09 18:35 Calm 16.09 Fair CLR 32 17 41% 32 75.62 0.0
09 18:15 Vrbl 6 14.48 Fair CLR 32 17 41% 32 75.62 0.0
09 17:55 Calm 8.05 Light Drizzle Haze CLR 33 17 38% 33 75.62 0.0
09 17:35 Calm 16.09 Fair CLR 32 18 43% 33 75.62 0.0
09 17:15 Vrbl 6 16.09 Fair CLR 32 17 41% 32 75.62 0.0
09 16:55 Vrbl 6 14.48 Fair CLR 33 17 38% 33 75.62 0.0
09 16:35 Calm 14.48 Fair CLR 32 18 43% 33 75.64 0.0
09 16:15 N 7 16.09 Fair CLR 32 18 43% 33 75.64 0.0
09 15:55 Calm 16.09 Fair CLR 32 17 41% 32 75.67 0.0
09 15:35 NW 7 6.44 Fair with Haze CLR 32 17 41% 32 75.69 0.0
09 15:15 N 9 14.48 Fair CLR 31 17 43% 31 75.72 0.0
09 14:55 Calm 11.27 Fair CLR 31 17 43% 31 75.72 0.0
09 14:35 Calm 16.09 Fair CLR 31 16 40% 31 75.74 0.0
09 14:15 Calm 16.09 Fair CLR 31 17 43% 31 75.77 0.0
09 13:55 Vrbl 6 16.09 Fair CLR 31 18 46% 32 75.79 0.0
09 13:35 Vrbl 6 16.09 Fair CLR 30 19 52% 31 75.82 0.0
09 13:15 Calm 16.09 Fair CLR 30 19 52% 31 75.82 0.0
09 12:35 Vrbl 6 16.09 Thunderstorm in Vicinity CLR 29 19 55% 30 75.87 0.0
09 12:15 Calm 16.09 Thunderstorm in Vicinity CLR 28 20 62% 30 75.87 0.0
09 11:55 Calm 16.09 Fair CLR 28 19 58% 29 75.87 0.0
09 11:35 NW 9 16.09 Fair CLR 28 20 62% 30 75.87 0.0
09 11:15 NW 13 G 24 16.09 Fair CLR 27 19 62% 28 75.9 0.0
09 10:55 N 11 16.09 Fair CLR 27 20 66% 29 75.9 0.0
09 10:35 N 11 G 22 16.09 Fair CLR 26 20 70% 27 75.9 0.0
09 10:15 NW 17 G 26 16.09 Fair CLR 26 19 65% 27 75.9 0.0
09 09:55 Vrbl 11 16.09 Fair CLR 25 20 74% 26 75.87 0.0
09 09:35 N 13 16.09 Fair CLR 24 20 78% 24 75.87 0.0
09 09:15 Vrbl 7 16.09 Fair CLR 22 21 94% 75.84 0.0
09 08:55 N 11 16.09 Fair CLR 22 21 94% 75.84 0.0
09 08:15 NW 11 11.27 Fair CLR 21 21 100% 75.84 0.0
09 07:55 NW 11 6.44 Fog/Mist FEW005 20 20 100% 75.77 0.0
09 07:35 W 6 9.66 Fog/Mist SCT006 20 20 100% 75.74 0.0
09 07:15 W 13 G 28 11.27 A Few Clouds FEW008 20 20 100% 75.69 0.0
09 06:55 S 20 G 30 12.87 Fair CLR 21 21 100% 75.59 0.0
09 06:35 S 20 G 31 9.66 Fog/Mist CLR 20 20 100% 75.64 0.0
09 06:15 SW 19 G 30 9.66 Fog/Mist CLR 21 21 100% 75.72 0.0
09 05:55 SW 15 9.66 Fog/Mist SCT110 20 20 100% 75.79 0.0
09 05:35 SW 11 4.83 Fog/Mist FEW055 SCT090 BKN110 20 20 100% 75.82 0.0
09 05:15 S 15 4.83 Fog/Mist SCT010 BKN055 BKN080 19 19 100% 75.87 0.0
09 04:35 NW 11 3.22 Fog/Mist OVC003 19 19 100% 75.92 0.0
09 04:15 NW 6 0.24 Fog OVC001 18 18 100% 75.9 0.0
09 03:55 Calm 0.24 Fog OVC001 18 18 100% 75.84 0.0
09 03:35 Calm 0.40 Fog OVC001 18 18 100% 75.87 0.0
09 03:15 N 7 1.21 Fog/Mist OVC001 18 18 100% 75.87 0.0
09 02:55 Calm 4.83 Fog/Mist CLR 18 18 100% 75.84 0.0
09 02:35 Calm 4.83 Fog/Mist CLR 18 18 100% 75.84 0.0
09 02:15 NE 7 3.22 Fog/Mist FEW026 17 17 100% 75.87 0.0
09 01:55 Calm 6.44 Fog/Mist BKN024 17 17 100% 75.87 0.0
09 01:35 SE 6 1.61 Fog/Mist FEW001 BKN021 18 18 100% 75.84 0.0
09 01:15 SW 6 0.24 Fog VV000 18 18 100% 75.82 0.0
09 00:55 SW 6 4.83 Fog/Mist CLR 17 17 100% 75.82 0.0
09 00:35 Calm 4.83 Fog/Mist CLR 18 18 100% 75.82 0.0
09 00:15 Calm 4.83 Fog/Mist CLR 18 18 100% 75.79 0.0
08 23:55 Calm 8.05 Fog/Mist CLR 18 18 100% 75.82 0.0
08 23:35 Calm 6.44 Fog/Mist CLR 19 19 100% 75.82 0.0
08 23:15 Calm 4.83 Fog/Mist CLR 19 19 100% 75.79 0.0
08 22:55 Calm 8.05 Fog/Mist CLR 19 19 100% 75.79 0.0
08 22:35 Calm 6.44 Fog/Mist CLR 20 20 100% 75.77 0.0
08 22:15 Calm 9.66 Fog/Mist SCT055 20 20 100% 75.77 0.0
08 21:55 SE 7 8.05 Fog/Mist BKN055 20 20 100% 75.74 0.0
08 21:35 Vrbl 7 9.66 Fog/Mist SCT055 20 20 100% 75.72 0.0
08 21:15 Calm 9.66 Fog/Mist CLR 20 20 100% 75.69 0.0
08 20:55 SE 7 11.27 Fair CLR 21 21 100% 75.69 0.0
08 20:35 SE 7 11.27 A Few Clouds FEW048 21 21 100% 75.67 0.0
08 20:15 SE 6 14.48 Mostly Cloudy SCT048 BKN070 22 22 100% 75.69 0.0
08 19:55 SE 7 14.48 Overcast FEW049 OVC065 22 22 100% 75.69 0.0
08 19:35 SE 9 14.48 Overcast SCT047 OVC065 22 21 94% 75.69 0.0
08 19:15 SE 7 16.09 Overcast BKN048 OVC065 22 21 94% 75.69 0.0
08 18:55 SE 9 16.09 Overcast FEW050 OVC065 23 21 89% 75.69 0.0
08 18:35 Vrbl 11 16.09 Overcast OVC065 22 21 94% 75.69 0.0
08 18:15 Vrbl 9 16.09 Overcast FEW014 OVC060 22 21 94% 75.69 0.0
08 17:55 Calm 16.09 Overcast FEW014 OVC060 23 21 89% 75.69 0.0
08 17:35 Vrbl 9 G 19 16.09 Overcast FEW015 OVC060 23 21 89% 75.69 0.0
08 17:15 Vrbl 11 G 20 16.09 Overcast BKN015 OVC065 23 21 89% 75.69 0.0
08 16:55 Vrbl 9 G 22 16.09 Overcast SCT015 SCT022 OVC065 23 21 89% 75.72 0.0
08 16:35 Vrbl 9 16.09 Overcast SCT014 BKN022 OVC065 24 21 83% 24 75.74 0.0
08 16:15 Vrbl 9 16.09 Overcast BKN014 OVC022 22 21 94% 75.77 0.0
08 15:55 SE 7 16.09 Overcast BKN014 OVC023 22 21 94% 75.79 0.0
08 15:35 Vrbl 9 16.09 Overcast SCT014 OVC023 22 20 88% 75.79 0.0
08 15:15 Vrbl 9 G 22 16.09 Overcast SCT014 OVC025 23 20 83% 75.82 0.0
08 14:55 SE 11 16.09 Overcast BKN015 OVC026 22 20 88% 75.84 0.0
08 14:35 Vrbl 6 16.09 Overcast OVC014 22 20 88% 75.84 0.0
08 14:15 NE 9 16.09 Overcast OVC015 21 19 88% 75.87 0.0
08 13:55 SE 7 16.09 Overcast OVC015 21 19 88% 75.9 0.0
08 13:35 Vrbl 6 16.09 Overcast OVC015 21 19 88% 75.92 0.0
08 13:15 E 9 16.09 Overcast OVC015 21 19 88% 75.92 0.0
08 12:55 NE 11 16.09 Overcast OVC014 21 19 88% 75.95 0.0
08 12:35 Vrbl 7 16.09 Overcast OVC016 20 18 88% 76 0.0
08 12:15 SE 7 16.09 Overcast OVC018 20 18 88% 76 0.0
08 11:55 Calm 16.09 Overcast OVC018 19 18 94% 76.02 0.0
08 11:35 E 7 16.09 Overcast OVC019 19 18 94% 76.05 0.0
08 11:15 Calm 16.09 Overcast OVC020 19 17 88% 76.05 0.0
08 10:55 Calm 16.09 Overcast OVC018 19 18 94% 76.05 0.0
08 10:35 Calm 16.09 Overcast OVC017 19 17 88% 76.05 0.0
08 10:15 Calm 16.09 Overcast OVC017 18 17 94% 76.02 0.0
08 09:55 Vrbl 7 16.09 Overcast OVC017 18 17 94% 76.02 0.0
08 09:35 N 6 16.09 Overcast OVC017 17 17 100% 76.05 0.0
08 09:15 Calm 16.09 Overcast OVC018 17 16 94% 76.07 0.0
08 08:55 Calm 16.09 Overcast OVC018 17 16 94% 76.07 0.0
08 08:35 Calm 16.09 Overcast OVC019 16 16 100% 76.07 0.0
08 08:15 Calm 16.09 Overcast OVC020 16 16 100% 76.1 0.0
08 07:55 Calm 16.09 Overcast OVC023 16 16 100% 76.1 0.0
08 07:35 Calm 16.09 Mostly Cloudy SCT015 BKN025 15 15 100% 76.1 0.0
08 07:15 Calm 16.09 Mostly Cloudy FEW014 SCT023 BKN044 15 15 100% 76.07 0.0
08 06:55 Calm 16.09 Overcast BKN022 OVC044 15 15 100% 76.07 0.0
08 06:35 NE 7 16.09 Overcast BKN021 OVC026 15 15 100% 76.1 0.0
08 06:15 Calm 16.09 Overcast OVC024 15 15 100% 76.1 0.0
08 05:55 Calm 16.09 Overcast BKN023 OVC028 15 15 100% 76.07 0.0
08 05:35 Calm 16.09 Overcast BKN022 OVC027 15 15 100% 76.1 0.0
08 05:15 Vrbl 7 16.09 Overcast OVC025 15 15 100% 76.1 0.0
08 04:55 S 6 14.48 Overcast OVC025 14 14 100% 76.15 0.0
08 04:35 Calm 11.27 Overcast OVC023 14 14 100% 76.12 0.0
08 04:15 Calm 14.48 Overcast OVC023 14 14 100% 76.17 0.0
08 03:55 Calm 9.66 Fog/Mist OVC023 14 14 100% 76.15 0.0
08 03:35 Calm 6.44 Fog/Mist OVC026 13 13 100% 76.15 0.0
08 03:15 NW 7 6.44 Fog/Mist SCT027 OVC110 13 13 100% 76.12 0.0
08 02:55 Calm 4.83 Fog/Mist BKN110 13 13 100% 76.1 0.0
08 02:35 Calm 4.83 Fog/Mist SCT110 13 13 100% 76.1 0.0
08 02:15 Calm 8.05 Fog/Mist CLR 13 13 100% 76.12 0.0
08 01:55 Calm 6.44 Fog/Mist CLR 13 13 100% 76.15 0.0
08 01:35 SW 6 8.05 Fog/Mist CLR 13 13 100% 76.17 0.0
08 01:15 Calm 8.05 Fog/Mist CLR 13 13 100% 76.17 0.0
08 00:55 Calm 9.66 Fog/Mist CLR 14 14 100% 76.17 0.0
08 00:35 Calm 8.05 Fog/Mist CLR 13 13 100% 76.15 0.0
08 00:15 Calm 9.66 Fog/Mist CLR 14 14 100% 76.2 0.0
07 23:55 Calm 11.27 Fair CLR 14 14 100% 76.2 0.0
07 23:35 Calm 9.66 Fog/Mist CLR 14 14 100% 76.23 0.0
07 23:15 Calm 6.44 Fog/Mist CLR 14 14 100% 76.2 0.0
07 22:55 Calm 8.05 Fog/Mist CLR 14 14 100% 76.2 0.0
07 22:35 Calm 2.82 Fog/Mist CLR 14 14 100% 76.2 0.0
07 22:15 Calm 9.66 Fog/Mist CLR 14 14 100% 76.2 0.0
07 21:55 Calm 14.48 Fair CLR 15 15 100% 76.15 0.0
07 21:35 Calm 12.87 Fair CLR 15 15 100% 76.15 0.0
07 21:15 Calm 14.48 Fair CLR 15 15 100% 76.12 0.0
07 20:55 Calm 16.09 Fair CLR 15 15 100% 76.12 0.0
07 20:35 Calm 14.48 Fair CLR 16 16 100% 76.12 0.0
07 20:15 Calm 16.09 Fair CLR 16 16 100% 76.12 0.0
07 19:55 Calm 16.09 A Few Clouds FEW110 17 17 100% 76.15 0.0
07 19:35 Calm 16.09 Partly Cloudy SCT110 17 17 100% 76.17 0.0
07 19:15 Calm 16.09 Mostly Cloudy FEW065 FEW075 BKN110 17 17 100% 76.2 0.0
07 18:55 Calm 12.87 Partly Cloudy SCT110 17 17 100% 76.2 0.0
07 18:35 N 9 14.48 A Few Clouds FEW110 17 17 100% 76.17 0.0
07 18:15 Calm 16.09 Light Rain FEW110 17 17 100% 76.17 0.0
07 17:55 Calm 14.48 Light Rain FEW060 FEW075 FEW110 17 16 94% 76.23 0.0
07 17:35 Calm 16.09 Light Rain SCT110 17 16 94% 76.2 0.0
07 17:15 Calm 16.09 Partly Cloudy SCT110 18 15 83% 76.23 0.0
07 16:55 SE 9 16.09 Fair CLR 18 16 88% 76.2 0.0
07 16:35 Calm 16.09 Light Rain CLR 17 17 100% 76.28 0.0
07 16:15 Calm 14.48 Light Rain CLR 17 16 94% 76.3 0.0
07 15:55 Calm 16.09 Fair CLR 17 15 88% 76.25 0.0
07 15:35 Calm 16.09 Fair CLR 17 16 94% 76.23 0.0
07 15:15 NE 9 8.05 Light Rain Haze CLR 18 14 78% 76.3 0.0
07 14:55 Vrbl 6 16.09 Fair CLR 19 13 68% 76.33 0.0
07 14:35 NE 6 16.09 Fair CLR 19 13 68% 76.35 0.0
07 14:15 NE 6 16.09 Fair CLR 19 13 68% 76.3 0.0
07 13:55 Vrbl 7 16.09 Fair CLR 18 13 73% 76.38 0.0
07 13:35 E 9 16.09 Fair CLR 18 13 73% 76.4 0.0
07 13:15 NE 15 16.09 Fair CLR 19 13 68% 76.35 0.0
07 12:55 Vrbl 13 16.09 Fair CLR 17 13 77% 76.38 0.0
07 12:35 Vrbl 9 16.09 A Few Clouds FEW110 17 12 73% 76.43 0.0
Date Time (cdt) Wind (kph) Vis. (km) Weather Sky Cond. Air Dwpt Max. Min. Relative Humidity Wind Chill (°C) Heat Index (°C) altimeter (cm) sea level (mb) 1 hr 3 hr 6 hr
6 hour
Temperature (ºC) Pressure Precipitation (cm)